Time;durP1;ratioP1;P1;durP2;ratioP2;P2;SDS_P1;SDS_P2;PMS_P1;PMS_P2;Temp;Humidity;BMP_temperature;BMP_pressure;BME280_temperature;BME280_humidity;BME280_pressure;Samples;Min_cycle;Max_cycle;Signal;HPM_P1;HPM_P2
2021/07/14 00:01:25;;;;;;;21.42;14.38;;;;;;;19.63;86.66;97506.27;1740260;82;20870;-74
2021/07/14 00:03:52;;;;;;;18.37;15.72;;;;;;;19.69;85.43;97511.17;1740339;82;21493;-74
2021/07/14 00:06:18;;;;;;;22.85;14.93;;;;;;;19.72;86.94;97513.78;1667106;85;21026;-74
2021/07/14 00:08:44;;;;;;;21.70;15.28;;;;;;;19.68;87.03;97514.28;1740405;82;20969;-74
2021/07/14 00:11:09;;;;;;;21.75;15.00;;;;;;;19.69;87.07;97513.92;1740450;82;21320;-74
2021/07/14 00:13:47;;;;;;;23.73;14.65;;;;;;;19.77;86.11;97523.16;1667046;86;21535;-75
2021/07/14 00:24:18;;;;;;;25.97;14.43;;;;;;;19.69;85.26;97523.54;1667014;85;21417;-73
2021/07/14 00:26:44;;;;;;;19.12;14.60;;;;;;;19.57;85.16;97518.11;1740363;82;20866;-73
2021/07/14 00:29:12;;;;;;;19.82;14.98;;;;;;;19.51;85.32;97518.09;1740313;82;20866;-73
2021/07/14 00:31:39;;;;;;;24.05;12.68;;;;;;;19.44;86.14;97526.14;1667263;85;21002;-74
2021/07/14 00:34:05;;;;;;;17.87;14.43;;;;;;;19.39;86.95;97520.30;1740309;82;21061;-74
2021/07/14 00:36:31;;;;;;;21.12;14.60;;;;;;;19.44;86.31;97515.95;1740333;82;21117;-74
2021/07/14 00:38:57;;;;;;;18.95;14.98;;;;;;;19.45;85.90;97519.48;1667358;85;21092;-74
2021/07/14 00:41:23;;;;;;;23.20;15.95;;;;;;;19.39;87.89;97520.30;1740481;82;21004;-74
2021/07/14 00:43:49;;;;;;;17.48;15.05;;;;;;;19.42;86.75;97523.74;1667150;86;20973;-74
2021/07/14 00:46:24;;;;;;;23.52;15.45;;;;;;;19.44;87.76;97516.52;1740560;82;20965;-74
2021/07/14 00:48:53;;;;;;;17.45;14.98;;;;;;;19.41;86.65;97509.78;1667332;85;21010;-73
2021/07/14 00:51:19;;;;;;;20.45;15.20;;;;;;;19.37;86.77;97515.73;1740459;82;21031;-74
2021/07/14 00:53:45;;;;;;;19.23;14.23;;;;;;;19.36;87.42;97517.47;1667319;86;20893;-74
2021/07/14 00:56:11;;;;;;;21.77;13.13;;;;;;;19.30;87.95;97522.97;1740582;82;20867;-73
2021/07/14 00:58:37;;;;;;;23.32;14.10;;;;;;;19.26;87.35;97520.71;1740561;82;20902;-73
2021/07/14 01:01:03;;;;;;;25.80;13.58;;;;;;;19.26;87.10;97516.59;1740134;82;21125;-73
2021/07/14 01:03:38;;;;;;;19.40;13.40;;;;;;;19.18;86.64;97518.33;1740450;82;21029;-74
2021/07/14 01:06:04;;;;;;;21.65;14.20;;;;;;;19.10;88.21;97519.27;1740021;82;20915;-74
2021/07/14 01:08:44;;;;;;;18.75;14.15;;;;;;;19.13;87.03;97507.58;1616985;86;20953;-74
2021/07/14 01:11:12;;;;;;;15.65;13.08;;;;;;;19.17;87.18;97505.75;1740251;82;21017;-74
2021/07/14 01:13:44;;;;;;;16.42;13.28;;;;;;;19.18;87.54;97510.09;1667302;86;21902;-74
2021/07/14 01:16:16;;;;;;;19.17;13.20;;;;;;;19.11;88.98;97505.76;1740069;82;20954;-74
2021/07/14 01:18:52;;;;;;;20.68;14.75;;;;;;;19.13;87.84;97508.37;1667012;85;20994;-74
2021/07/14 01:21:24;;;;;;;18.20;13.10;;;;;;;19.11;87.46;97504.38;1645800;86;21424;-74
2021/07/14 01:24:18;;;;;;;17.30;13.22;;;;;;;19.08;87.45;97502.34;1740630;81;21030;-74
2021/07/14 01:27:17;;;;;;;20.82;14.18;;;;;;;19.03;87.09;97508.86;1740403;81;21518;-74
2021/07/14 01:29:52;;;;;;;18.40;14.00;;;;;;;19.01;88.67;97513.11;1667160;85;20977;-73
2021/07/14 01:32:20;;;;;;;17.95;14.15;;;;;;;19.00;87.28;97508.77;1712670;82;20947;-74
2021/07/14 01:34:49;;;;;;;18.70;14.10;;;;;;;18.98;87.22;97513.81;1711880;82;20973;-73
2021/07/14 01:37:18;;;;;;;17.60;12.80;;;;;;;18.95;86.94;97509.80;1733211;82;21072;-74
2021/07/14 01:39:44;;;;;;;;;;;;;;;18.86;87.62;97506.38;1735933;82;21169;-74
2021/07/14 01:42:10;;;;;;;19.87;13.03;;;;;;;18.76;88.44;97504.92;1738871;82;20213;-74
2021/07/14 01:44:36;;;;;;;16.05;13.53;;;;;;;18.73;88.01;97516.59;1733423;82;20866;-74
2021/07/14 01:47:02;;;;;;;19.87;14.53;;;;;;;18.71;87.63;97514.74;1733303;82;21410;-74
2021/07/14 01:49:31;;;;;;;17.62;13.00;;;;;;;18.75;88.18;97516.24;1733356;82;21350;-74
2021/07/14 01:52:04;;;;;;;15.90;12.73;;;;;;;18.74;88.44;97512.70;1733162;82;21828;-74
2021/07/14 01:54:30;;;;;;;19.65;12.50;;;;;;;18.81;88.62;97517.62;1713782;82;20926;-74
2021/07/14 01:56:56;;;;;;;20.85;13.43;;;;;;;18.76;88.38;97513.72;1733143;82;21441;-73
2021/07/14 01:59:22;;;;;;;19.73;13.03;;;;;;;18.73;88.88;97513.05;1733351;82;21013;-73
2021/07/14 02:01:48;;;;;;;16.80;12.85;;;;;;;18.73;88.62;97522.09;1733240;82;21429;-74
2021/07/14 02:04:31;;;;;;;16.42;12.63;;;;;;;18.69;88.18;97514.30;1733411;82;21341;-73
2021/07/14 02:07:11;;;;;;;18.57;12.78;;;;;;;18.64;88.22;97512.34;1733133;82;20985;-73
2021/07/14 02:09:43;;;;;;;22.30;13.93;;;;;;;18.64;88.17;97521.38;1733265;82;20969;-73
2021/07/14 02:12:20;;;;;;;16.73;12.73;;;;;;;18.65;88.21;97518.89;1732383;82;20997;-74
2021/07/14 02:14:58;;;;;;;17.45;13.40;;;;;;;18.72;88.00;97520.48;1731921;82;20993;-73
2021/07/14 02:17:28;;;;;;;16.87;12.28;;;;;;;18.75;87.91;97517.05;1733109;82;21335;-73
2021/07/14 02:20:01;;;;;;;19.35;12.20;;;;;;;18.73;87.80;97518.55;1733220;82;20958;-74
2021/07/14 02:22:27;;;;;;;15.85;12.25;;;;;;;18.64;88.33;97514.52;1714160;82;21422;-73
2021/07/14 02:24:54;;;;;;;17.50;13.20;;;;;;;18.64;87.56;97517.84;1733188;82;20958;-73
2021/07/14 02:27:20;;;;;;;22.02;12.33;;;;;;;18.55;87.62;97525.61;1733184;82;21359;-73
2021/07/14 02:29:47;;;;;;;30.92;15.35;;;;;;;18.50;87.63;97525.03;1733355;82;21305;-73
2021/07/14 02:32:17;;;;;;;18.20;13.18;;;;;;;18.50;87.52;97533.27;1733060;82;21411;-74
2021/07/14 02:34:44;;;;;;;17.32;12.40;;;;;;;18.54;88.14;97537.73;1735698;82;20987;-73
2021/07/14 02:37:11;;;;;;;19.35;13.48;;;;;;;18.55;88.51;97539.91;1740278;82;21371;-73
2021/07/14 02:39:40;;;;;;;16.73;14.07;;;;;;;18.57;88.23;97538.98;1740390;82;21167;-73
2021/07/14 02:42:15;;;;;;;15.53;13.93;;;;;;;18.62;87.76;97537.36;1740426;82;21167;-73
2021/07/14 02:44:43;;;;;;;17.75;14.35;;;;;;;18.64;87.73;97532.36;1740349;82;21089;-74
2021/07/14 02:47:08;;;;;;;14.45;12.98;;;;;;;18.57;87.88;97532.92;1740575;82;20994;-74
2021/07/14 02:49:38;;;;;;;21.30;14.03;;;;;;;18.57;88.08;97535.66;1740242;82;21488;-74
2021/07/14 02:52:07;;;;;;;14.38;12.23;;;;;;;18.56;88.40;97533.27;1740694;82;20963;-74
2021/07/14 02:54:33;;;;;;;15.72;13.93;;;;;;;18.53;89.56;97542.97;1667396;85;21324;-73
2021/07/14 02:57:02;;;;;;;17.05;13.75;;;;;;;18.56;88.95;97538.19;1740129;82;20922;-74
2021/07/14 02:59:30;;;;;;;15.08;11.90;;;;;;;18.57;88.56;97536.23;1667145;85;20993;-74
2021/07/14 03:01:58;;;;;;;24.00;13.55;;;;;;;18.58;88.57;97538.63;1740350;82;20993;-74
2021/07/14 03:04:40;;;;;;;14.60;12.53;;;;;;;18.55;88.07;97533.05;1740366;82;21026;-74
2021/07/14 03:07:09;;;;;;;15.20;13.20;;;;;;;18.55;87.87;97531.10;1740003;82;21176;-74
2021/07/14 03:09:39;;;;;;;16.07;12.95;;;;;;;18.53;88.59;97531.99;1740227;82;20958;-73
2021/07/14 03:12:12;;;;;;;16.05;13.00;;;;;;;18.48;88.36;97529.50;1740217;82;20926;-73
2021/07/14 03:14:41;;;;;;;19.92;14.43;;;;;;;18.53;87.93;97524.34;1666941;85;20998;-74
2021/07/14 03:17:07;;;;;;;17.98;13.85;;;;;;;18.57;88.75;97512.92;1740386;82;20974;-74
2021/07/14 03:19:33;;;;;;;17.35;14.28;;;;;;;18.56;88.66;97509.37;1740406;82;21307;-73
2021/07/14 03:22:00;;;;;;;18.00;15.40;;;;;;;18.59;88.51;97514.73;1740155;82;21026;-73
2021/07/14 03:24:25;;;;;;;18.67;14.65;;;;;;;18.63;88.35;97516.20;1667260;85;21549;-74
2021/07/14 03:26:51;;;;;;;20.00;13.95;;;;;;;18.70;88.20;97516.47;1740051;82;20842;-74
2021/07/14 03:29:18;;;;;;;19.40;14.15;;;;;;;18.73;88.56;97517.97;1740601;82;20871;-73
2021/07/14 03:31:44;;;;;;;18.80;14.63;;;;;;;18.76;88.30;97512.35;1740137;82;21150;-74
2021/07/14 03:34:10;;;;;;;16.97;14.47;;;;;;;18.75;89.37;97510.76;1740211;82;20970;-74
2021/07/14 03:36:36;;;;;;;17.82;14.28;;;;;;;18.84;88.34;97516.92;1756210;81;20941;-73
2021/07/14 03:39:03;;;;;;;21.33;13.95;;;;;;;18.86;88.20;97520.11;1756653;81;20874;-74
2021/07/14 03:41:29;;;;;;;21.00;14.28;;;;;;;18.95;87.85;97517.23;1756273;81;20969;-74
2021/07/14 03:43:56;;;;;;;20.27;15.05;;;;;;;19.03;88.53;97517.67;1691787;84;21364;-74
2021/07/14 03:46:22;;;;;;;19.82;15.30;;;;;;;19.10;88.01;97513.20;1691389;84;21478;-74
2021/07/14 03:48:48;;;;;;;22.93;14.80;;;;;;;19.20;87.26;97519.34;1689025;84;20972;-74
2021/07/14 03:51:14;;;;;;;19.40;15.32;;;;;;;19.27;87.14;97518.98;1720400;83;20861;-74
2021/07/14 03:53:40;;;;;;;22.98;15.58;;;;;;;19.31;86.82;97527.31;1665891;84;21032;-74
2021/07/14 03:56:06;;;;;;;20.08;15.30;;;;;;;19.21;86.74;97524.48;1691435;84;21154;-74
2021/07/14 03:58:32;;;;;;;25.43;16.60;;;;;;;19.23;87.37;97524.13;1691646;84;21529;-74
2021/07/14 04:00:58;;;;;;;22.58;16.17;;;;;;;19.30;87.17;97522.39;1720563;83;20893;-74
2021/07/14 04:03:25;;;;;;;20.88;16.73;;;;;;;19.37;87.14;97521.81;1691486;84;21535;-74
2021/07/14 04:06:02;;;;;;;19.73;15.45;;;;;;;19.47;86.60;97526.00;1691639;84;21354;-74
2021/07/14 04:08:40;;;;;;;26.30;16.75;;;;;;;19.51;86.34;97527.72;1691775;84;21949;-73
2021/07/14 04:11:06;;;;;;;24.95;17.17;;;;;;;19.55;86.18;97525.06;1720584;83;21013;-74
2021/07/14 04:13:33;;;;;;;21.82;16.27;;;;;;;19.57;86.26;97520.03;1691893;84;20970;-74
2021/07/14 04:15:59;;;;;;;22.52;16.20;;;;;;;19.57;86.00;97513.16;1691754;84;20978;-75
2021/07/14 04:18:25;;;;;;;24.77;16.77;;;;;;;19.60;85.97;97513.86;1691638;84;20937;-74
2021/07/14 04:20:51;;;;;;;22.32;15.78;;;;;;;19.64;86.09;97521.61;1720656;83;21139;-74
2021/07/14 04:23:17;;;;;;;18.48;16.48;;;;;;;19.71;85.93;97519.06;1691616;84;20993;-74
2021/07/14 04:25:43;;;;;;;19.45;16.87;;;;;;;19.74;85.53;97518.38;1691689;84;20964;-74
2021/07/14 04:28:09;;;;;;;22.15;16.70;;;;;;;19.77;86.01;97515.48;1691717;84;20937;-74
2021/07/14 04:30:35;;;;;;;21.73;16.15;;;;;;;19.90;85.84;97517.80;1720688;83;20878;-74
2021/07/14 04:33:01;;;;;;;27.75;18.07;;;;;;;20.04;85.69;97520.72;1691603;84;21025;-74
2021/07/14 04:35:27;;;;;;;23.40;18.07;;;;;;;20.16;85.81;97514.55;1683798;84;20922;-74
2021/07/14 04:37:53;;;;;;;19.42;15.95;;;;;;;20.29;85.73;97523.52;1734744;81;20871;-74
2021/07/14 04:40:19;;;;;;;20.97;16.30;;;;;;;20.45;85.15;97522.18;1671615;85;20966;-74
2021/07/14 04:42:44;;;;;;;29.75;16.65;;;;;;;20.53;84.66;97517.86;1671576;85;20997;-74
2021/07/14 04:45:11;;;;;;;21.17;16.30;;;;;;;20.65;84.46;97518.33;1671578;85;22004;-74
2021/07/14 04:47:37;;;;;;;20.00;15.83;;;;;;;20.72;84.02;97519.08;1671354;85;20999;-74
2021/07/14 04:50:04;;;;;;;17.12;15.38;;;;;;;20.86;83.62;97524.13;1735041;81;20886;-74
2021/07/14 04:52:30;;;;;;;17.35;15.13;;;;;;;20.96;83.52;97520.81;1734679;82;20971;-74
2021/07/14 04:54:56;;;;;;;18.15;15.80;;;;;;;21.10;83.02;97521.89;1735097;82;20915;-74
2021/07/14 04:57:22;;;;;;;22.45;15.65;;;;;;;21.27;82.89;97515.78;1734584;82;21080;-74
2021/07/14 04:59:47;;;;;;;19.75;15.83;;;;;;;21.48;82.53;97512.10;1671784;85;20862;-75
2021/07/14 05:02:13;;;;;;;22.07;16.32;;;;;;;21.72;81.98;97511.00;1734801;81;20894;-74
2021/07/14 05:04:39;;;;;;;22.45;16.17;;;;;;;21.96;81.87;97505.16;1734944;82;20954;-74
2021/07/14 05:07:05;;;;;;;17.70;15.20;;;;;;;22.10;81.13;97502.45;1734786;82;21029;-74
2021/07/14 05:09:31;;;;;;;21.23;14.55;;;;;;;22.16;80.63;97507.30;1735013;82;21051;-74
2021/07/14 05:11:57;;;;;;;18.00;15.95;;;;;;;22.31;80.33;97515.83;1734646;82;20839;-74
2021/07/14 05:14:23;;;;;;;18.17;16.10;;;;;;;22.33;79.52;97522.56;1671700;85;21565;-75
2021/07/14 05:16:49;;;;;;;23.15;17.07;;;;;;;22.29;79.72;97514.00;1671469;85;20871;-74
2021/07/14 05:19:15;;;;;;;21.35;16.23;;;;;;;22.23;80.33;97510.19;1671585;85;21400;-75
2021/07/14 05:21:41;;;;;;;25.20;16.65;;;;;;;22.20;80.88;97506.77;1671505;85;21178;-74
2021/07/14 05:24:09;;;;;;;16.45;14.10;;;;;;;22.26;80.82;97495.43;1671279;85;20982;-74
2021/07/14 05:26:35;;;;;;;22.85;14.65;;;;;;;22.30;80.40;97487.99;1651850;86;20999;-74
2021/07/14 05:29:01;;;;;;;18.82;14.20;;;;;;;22.29;80.36;97473.40;1671707;85;21384;-74
2021/07/14 05:31:27;;;;;;;24.35;14.73;;;;;;;22.28;80.92;97466.30;1671477;85;20847;-75
2021/07/14 05:33:53;;;;;;;15.23;13.48;;;;;;;22.35;80.87;97447.67;1735045;81;21244;-75
2021/07/14 05:36:19;;;;;;;16.82;14.35;;;;;;;22.48;80.47;97458.16;1671687;85;21568;-75
2021/07/14 05:38:45;;;;;;;17.32;14.33;;;;;;;22.57;79.85;97459.27;1671566;85;20910;-74
2021/07/14 05:41:10;;;;;;;19.07;15.23;;;;;;;22.70;78.86;97471.67;1671584;85;20907;-74
2021/07/14 05:43:37;;;;;;;18.67;15.53;;;;;;;22.82;77.31;97470.67;1671746;85;20871;-74
2021/07/14 05:46:04;;;;;;;18.10;15.95;;;;;;;22.82;77.84;97477.58;1671498;85;21266;-74
2021/07/14 05:48:30;;;;;;;23.20;14.70;;;;;;;22.92;77.66;97467.88;1671565;85;21005;-74
2021/07/14 05:50:57;;;;;;;20.40;15.90;;;;;;;23.02;77.23;97468.02;1734960;81;20970;-74
2021/07/14 05:53:24;;;;;;;22.20;14.65;;;;;;;23.14;76.37;97462.03;1734664;82;20963;-74
2021/07/14 05:55:50;;;;;;;19.55;15.55;;;;;;;23.28;76.40;97455.30;1734956;82;21070;-75
2021/07/14 05:58:16;;;;;;;19.70;14.50;;;;;;;23.44;76.64;97459.25;1734593;82;21208;-75
2021/07/14 06:00:42;;;;;;;18.77;15.43;;;;;;;23.64;75.76;97460.09;1734878;82;20977;-74
2021/07/14 06:03:08;;;;;;;17.98;15.80;;;;;;;23.90;75.45;97462.52;1734632;82;20967;-75
2021/07/14 06:05:35;;;;;;;27.95;16.75;;;;;;;24.15;74.50;97459.98;1734935;82;20937;-74
2021/07/14 06:08:01;;;;;;;17.48;15.15;;;;;;;24.41;73.95;97459.83;1671360;85;21034;-74
2021/07/14 06:10:27;;;;;;;20.10;16.05;;;;;;;24.65;72.04;97468.70;1671572;85;21172;-74
2021/07/14 06:12:56;;;;;;;27.70;17.98;;;;;;;24.74;71.12;97469.95;1671322;85;20943;-74
2021/07/14 06:15:22;;;;;;;33.67;18.67;;;;;;;24.81;70.75;97474.75;1671832;85;20979;-74
2021/07/14 06:17:47;;;;;;;23.50;16.77;;;;;;;24.98;70.75;97474.06;1671255;85;21029;-74
2021/07/14 06:20:13;;;;;;;22.42;15.65;;;;;;;25.12;70.32;97473.94;1671699;85;21604;-74
2021/07/14 06:22:39;;;;;;;20.12;15.10;;;;;;;25.21;70.07;97474.38;1734647;81;21236;-74
2021/07/14 06:25:08;;;;;;;27.05;15.83;;;;;;;25.33;69.53;97472.66;1734779;82;20894;-74
2021/07/14 06:27:34;;;;;;;23.90;16.07;;;;;;;25.42;68.61;97481.41;1734816;81;20923;-74
2021/07/14 06:30:05;;;;;;;19.92;15.85;;;;;;;25.48;68.67;97479.86;1671653;85;21002;-74
2021/07/14 06:32:28;;;;;;;24.82;15.98;;;;;;;25.60;69.16;97480.88;1671173;85;20978;-74
2021/07/14 06:34:54;;;;;;;20.15;16.37;;;;;;;25.77;67.88;97479.97;1671746;85;21197;-74
2021/07/14 06:37:20;;;;;;;18.98;15.23;;;;;;;25.86;67.33;97479.78;1739213;81;20989;-74
2021/07/14 06:39:46;;;;;;;26.50;15.80;;;;;;;25.99;66.25;97480.22;1740577;82;21572;-74
2021/07/14 06:42:11;;;;;;;24.25;15.85;;;;;;;26.06;66.00;97476.64;1740672;82;20831;-74
2021/07/14 06:44:37;;;;;;;18.92;15.55;;;;;;;26.17;66.21;97476.08;1740587;82;20949;-74
2021/07/14 06:47:04;;;;;;;16.77;14.00;;;;;;;26.34;65.35;97473.11;1667170;86;22050;-74
2021/07/14 06:49:31;;;;;;;16.67;14.53;;;;;;;26.37;63.98;97477.26;1740378;82;21411;-74
2021/07/14 06:51:57;;;;;;;23.00;16.02;;;;;;;26.30;65.16;97474.48;1740202;82;21013;-74
2021/07/14 06:54:23;;;;;;;19.17;14.18;;;;;;;26.45;66.40;97472.53;1740427;82;21507;-74
2021/07/14 06:56:49;;;;;;;16.65;14.55;;;;;;;26.68;66.28;97486.80;1740344;82;20860;-74
2021/07/14 06:59:15;;;;;;;21.90;16.27;;;;;;;26.90;65.27;97479.80;1740422;82;21191;-74
2021/07/14 07:01:41;;;;;;;18.60;14.25;;;;;;;27.11;64.05;97477.02;1740068;82;20913;-74
2021/07/14 07:04:07;;;;;;;19.45;13.80;;;;;;;27.30;62.80;97479.92;1740350;82;20930;-74
2021/07/14 07:06:33;;;;;;;18.87;14.75;;;;;;;27.41;62.32;97474.31;1740310;82;20851;-74
2021/07/14 07:08:59;;;;;;;26.68;19.57;;;;;;;27.51;61.33;97471.47;1740411;82;21564;-74
2021/07/14 07:11:25;;;;;;;21.75;15.28;;;;;;;27.70;61.58;97473.02;1740226;82;21299;-74
2021/07/14 07:13:51;;;;;;;18.90;14.10;;;;;;;27.97;61.30;97474.64;1667215;86;20877;-74
2021/07/14 07:16:17;;;;;;;23.90;17.95;;;;;;;28.25;60.29;97479.21;1740394;82;20847;-74
2021/07/14 07:18:43;;;;;;;17.30;12.55;;;;;;;28.35;60.11;97484.53;1740316;82;20847;-74
2021/07/14 07:21:09;;;;;;;18.40;13.88;;;;;;;28.57;59.16;97476.20;1740397;82;20863;-74
2021/07/14 07:23:36;;;;;;;18.02;12.93;;;;;;;28.71;59.02;97468.29;1740414;82;21997;-74
2021/07/14 07:26:04;;;;;;;18.23;13.58;;;;;;;28.89;57.88;97469.53;1666974;85;20966;-74
2021/07/14 07:28:35;;;;;;;;;;;;;;;28.93;58.04;97466.12;1742916;82;20981;-74
2021/07/14 07:30:58;;;;;;;14.28;12.25;;;;;;;29.06;55.66;97463.61;1739916;82;20516;-74
2021/07/14 07:33:24;;;;;;;19.75;12.47;;;;;;;29.35;55.48;97457.86;1740093;82;20910;-75
2021/07/14 07:35:50;;;;;;;14.65;12.85;;;;;;;29.32;54.40;97468.47;1740421;82;21238;-75
2021/07/14 07:38:16;;;;;;;17.80;13.05;;;;;;;29.38;55.36;97465.39;1740104;82;21497;-75
2021/07/14 07:40:42;;;;;;;14.45;11.38;;;;;;;29.72;54.96;97459.78;1740381;82;21061;-74
2021/07/14 07:43:08;;;;;;;14.93;11.08;;;;;;;30.20;53.83;97470.50;1666998;86;20846;-74
2021/07/14 07:45:34;;;;;;;18.35;12.37;;;;;;;30.60;51.24;97471.45;1740503;82;20902;-75
2021/07/14 07:48:00;;;;;;;21.73;11.50;;;;;;;30.69;51.58;97473.72;1740250;82;22035;-75
2021/07/14 07:50:26;;;;;;;18.45;11.78;;;;;;;31.13;50.03;97465.50;1740579;82;20886;-74
2021/07/14 07:52:52;;;;;;;21.12;11.48;;;;;;;31.29;47.98;97467.01;1740239;82;21000;-75
2021/07/14 07:55:17;;;;;;;20.77;12.85;;;;;;;31.29;48.65;97469.81;1740437;82;21374;-75
2021/07/14 07:57:43;;;;;;;23.65;12.03;;;;;;;31.62;50.41;97462.32;1740185;82;20870;-75
2021/07/14 08:00:14;;;;;;;20.43;12.50;;;;;;;32.00;49.52;97457.08;1740540;82;21832;-75
2021/07/14 08:02:41;;;;;;;12.37;10.03;;;;;;;32.48;49.72;97457.58;1740116;82;21002;-75
2021/07/14 08:05:08;;;;;;;15.85;10.53;;;;;;;32.73;47.87;97461.12;1667329;86;21021;-75
2021/07/14 08:07:34;;;;;;;33.08;11.93;;;;;;;32.75;46.78;97457.28;1740288;81;21030;-75
2021/07/14 08:10:00;;;;;;;18.57;10.72;;;;;;;32.60;47.31;97456.86;1667277;85;21076;-75
2021/07/14 08:12:26;;;;;;;15.15;10.00;;;;;;;32.24;46.70;97449.31;1740222;82;22012;-75
2021/07/14 08:14:52;;;;;;;19.20;10.45;;;;;;;32.22;48.00;97460.80;1667304;85;20885;-75
2021/07/14 08:17:18;;;;;;;13.53;9.70;;;;;;;32.22;46.69;97462.20;1740188;82;21004;-76
2021/07/14 08:19:44;;;;;;;17.60;11.22;;;;;;;32.06;47.19;97464.98;1695257;84;20886;-76
2021/07/14 08:22:10;;;;;;;19.40;12.00;;;;;;;32.04;46.71;97470.99;1740262;82;21002;-75
2021/07/14 08:24:36;;;;;;;15.20;12.05;;;;;;;31.77;48.22;97470.42;1740397;82;21247;-75
2021/07/14 08:27:02;;;;;;;17.35;12.40;;;;;;;31.63;46.89;97478.51;1739912;82;21540;-75
2021/07/14 08:29:28;;;;;;;18.30;12.13;;;;;;;31.34;47.08;97479.08;1740241;82;21470;-75
2021/07/14 08:31:54;;;;;;;15.68;10.70;;;;;;;31.53;48.15;97483.09;1740242;82;20839;-75
2021/07/14 08:34:20;;;;;;;15.63;10.88;;;;;;;31.36;47.35;97487.05;1740253;82;20978;-75
2021/07/14 08:36:46;;;;;;;20.08;13.00;;;;;;;31.01;48.33;97488.49;1668425;85;22013;-75
2021/07/14 08:39:13;;;;;;;17.25;11.85;;;;;;;30.80;51.08;97487.68;1671473;85;21480;-75
2021/07/14 08:41:42;;;;;;;13.60;12.15;;;;;;;30.71;51.85;97496.45;1671411;86;20994;-75
2021/07/14 08:44:08;;;;;;;15.45;11.70;;;;;;;30.43;53.89;97492.09;1734749;82;21023;-75
2021/07/14 08:46:36;;;;;;;21.33;12.37;;;;;;;30.43;53.78;97497.69;1734631;82;20906;-76
2021/07/14 08:49:05;;;;;;;19.90;11.25;;;;;;;30.36;54.93;97506.18;1734883;82;21028;-75
2021/07/14 08:51:34;;;;;;;12.37;11.08;;;;;;;30.33;54.63;97508.58;1734616;82;20907;-75
2021/07/14 08:54:00;;;;;;;18.52;12.07;;;;;;;30.28;55.11;97508.30;1734813;82;20975;-75
2021/07/14 08:56:27;;;;;;;17.87;11.88;;;;;;;30.27;55.15;97505.31;1671624;85;20862;-75
2021/07/14 08:58:53;;;;;;;27.20;13.32;;;;;;;30.27;55.93;97513.70;1671297;85;20982;-75
2021/07/14 09:01:19;;;;;;;18.70;11.85;;;;;;;30.21;54.30;97518.97;1734961;81;21320;-75
2021/07/14 09:03:45;;;;;;;22.42;13.05;;;;;;;30.28;54.17;97517.47;1671400;85;20977;-75
2021/07/14 09:06:11;;;;;;;19.10;12.18;;;;;;;30.31;53.71;97522.20;1671562;85;20858;-75
2021/07/14 09:08:38;;;;;;;15.83;12.00;;;;;;;30.22;54.28;97527.52;1671346;85;20898;-76
2021/07/14 09:11:06;;;;;;;18.85;12.13;;;;;;;30.24;56.41;97521.51;1735206;82;20983;-75
2021/07/14 09:13:35;;;;;;;16.52;11.73;;;;;;;30.20;55.85;97522.97;1734715;82;22079;-75
2021/07/14 09:16:01;;;;;;;18.25;12.88;;;;;;;30.24;55.21;97533.48;1734116;82;20958;-75
2021/07/14 09:18:29;;;;;;;18.48;12.88;;;;;;;30.26;56.37;97526.09;1671381;85;20993;-75
2021/07/14 09:20:54;;;;;;;14.80;11.88;;;;;;;30.37;57.23;97524.52;1671836;85;21046;-75
2021/07/14 09:23:23;;;;;;;17.30;11.73;;;;;;;30.44;57.32;97525.20;1651685;86;20942;-75
2021/07/14 09:26:01;;;;;;;16.50;12.45;;;;;;;30.54;57.19;97534.02;1671584;85;21332;-75
2021/07/14 09:28:33;;;;;;;17.42;13.00;;;;;;;30.61;56.83;97538.11;1671268;85;21427;-74
2021/07/14 09:31:07;;;;;;;13.75;12.37;;;;;;;30.81;55.27;97538.80;1652661;85;20963;-74
2021/07/14 09:33:34;;;;;;;12.45;11.20;;;;;;;32.22;53.16;97537.86;1671307;85;20943;-75
2021/07/14 09:36:00;;;;;;;14.43;11.73;;;;;;;33.70;49.67;97537.30;1734640;82;20990;-76
2021/07/14 09:38:35;;;;;;;15.28;11.00;;;;;;;34.57;46.68;97537.71;1671287;85;21973;-75
2021/07/14 09:41:09;;;;;;;18.55;11.25;;;;;;;35.33;41.09;97543.18;1671523;85;20970;-76
2021/07/14 09:43:37;;;;;;;20.15;11.45;;;;;;;36.01;43.01;97548.56;1671326;85;20978;-76
2021/07/14 09:46:10;;;;;;;15.13;10.10;;;;;;;35.92;41.71;97541.47;1671250;86;20990;-76
2021/07/14 09:48:45;;;;;;;13.03;10.72;;;;;;;35.38;41.69;97538.39;1734707;82;21007;-76
2021/07/14 09:51:19;;;;;;;18.52;10.85;;;;;;;35.64;41.00;97539.08;1734797;82;21839;-76
2021/07/14 09:53:47;;;;;;;14.07;10.78;;;;;;;36.20;41.94;97539.58;1734588;82;20895;-76
2021/07/14 09:56:27;;;;;;;14.60;10.95;;;;;;;37.20;39.73;97534.88;1734894;82;20970;-76
2021/07/14 09:59:10;;;;;;;13.93;9.85;;;;;;;37.47;38.28;97525.65;1671446;85;20959;-76
2021/07/14 10:01:49;;;;;;;18.40;11.38;;;;;;;38.07;36.88;97526.34;1709129;82;20982;-75
2021/07/14 10:04:13;;;;;;;16.30;10.00;;;;;;;38.18;36.69;97527.88;1669853;85;21128;-76
2021/07/14 10:06:39;;;;;;;11.78;8.43;;;;;;;38.33;35.44;97526.75;1671498;85;21486;-76
2021/07/14 10:09:05;;;;;;;10.03;9.05;;;;;;;38.59;32.60;97522.84;1734697;82;20915;-76
2021/07/14 10:11:32;;;;;;;11.00;9.55;;;;;;;39.09;33.41;97518.16;1699794;84;20867;-76
2021/07/14 10:14:06;;;;;;;;;;;;;;;38.92;34.15;97524.89;1673826;85;21051;-76
2021/07/14 10:16:41;;;;;;;11.22;9.98;;;;;;;39.41;32.73;97522.97;1671462;85;21107;-75
2021/07/14 10:19:14;;;;;;;13.78;9.68;;;;;;;38.77;33.87;97529.70;1671210;85;20966;-74
2021/07/14 10:21:47;;;;;;;10.35;9.25;;;;;;;38.32;34.87;97522.36;1671458;85;21049;-76
2021/07/14 10:24:15;;;;;;;13.72;9.65;;;;;;;38.37;34.49;97524.55;1671333;86;21023;-76
2021/07/14 10:26:44;;;;;;;12.55;9.25;;;;;;;38.46;34.24;97526.55;1671529;85;21105;-76
2021/07/14 10:29:10;;;;;;;10.00;8.40;;;;;;;39.55;33.29;97519.99;1671369;85;21315;-77
2021/07/14 10:31:37;;;;;;;23.40;9.38;;;;;;;39.71;31.60;97521.61;1671366;85;20958;-76
2021/07/14 10:34:04;;;;;;;11.20;8.43;;;;;;;39.34;32.43;97525.39;1734643;82;20955;-76
2021/07/14 10:36:33;;;;;;;11.48;9.38;;;;;;;38.77;32.98;97519.79;1699550;84;21396;-76
2021/07/14 10:39:06;;;;;;;18.48;9.50;;;;;;;37.83;33.20;97525.47;1739796;81;21026;-76
2021/07/14 10:41:31;;;;;;;17.77;9.38;;;;;;;37.32;34.56;97527.53;1740226;82;21051;-77
2021/07/14 10:43:59;;;;;;;16.23;10.13;;;;;;;36.65;35.50;97539.61;1694930;84;20945;-76
2021/07/14 10:46:26;;;;;;;22.05;11.43;;;;;;;36.69;36.38;97538.84;1695311;84;21069;-76
2021/07/14 10:48:53;;;;;;;20.62;11.33;;;;;;;35.72;37.70;97540.39;1667084;86;20982;-76
2021/07/14 10:51:21;;;;;;;24.25;11.73;;;;;;;33.94;41.00;97542.84;1740423;82;21027;-76
2021/07/14 10:53:51;;;;;;;14.40;11.15;;;;;;;33.86;41.24;97546.28;1740196;82;22363;-76
2021/07/14 10:56:18;;;;;;;13.03;11.57;;;;;;;33.79;41.00;97550.08;1735500;82;21430;-75
2021/07/14 10:58:45;;;;;;;27.10;10.98;;;;;;;33.90;41.40;97546.36;1740090;82;21022;-75
2021/07/14 11:01:10;;;;;;;14.77;11.27;;;;;;;34.07;41.27;97541.44;1667339;85;21458;-75
2021/07/14 11:03:41;;;;;;;21.82;10.95;;;;;;;34.75;40.03;97540.72;1740168;82;20851;-75
2021/07/14 11:06:10;;;;;;;16.37;10.55;;;;;;;36.36;37.63;97542.81;1711648;82;21347;-76
2021/07/14 11:08:40;;;;;;;14.90;11.28;;;;;;;36.22;36.43;97544.74;1740063;82;21426;-77
2021/07/14 11:11:06;;;;;;;17.65;11.15;;;;;;;35.37;37.61;97557.13;1740281;82;20978;-76
2021/07/14 11:13:34;;;;;;;19.35;11.55;;;;;;;35.43;38.33;97557.53;1667048;85;20974;-76
2021/07/14 11:16:20;;;;;;;;;;;;;;;33.82;39.73;97556.81;1743004;82;21037;-76
2021/07/14 11:18:46;;;;;;;14.10;10.38;;;;;;;33.85;40.26;97555.33;1727410;82;21062;-76
2021/07/14 11:21:34;;;;;;;14.58;9.60;;;;;;;34.81;39.07;97557.83;1687150;82;20966;-76
2021/07/14 11:24:00;;;;;;;10.82;9.83;;;;;;;36.20;36.84;97562.76;1667043;85;21083;-76
2021/07/14 11:26:26;;;;;;;10.88;9.70;;;;;;;36.90;35.12;97561.18;1740349;82;20894;-76
2021/07/14 11:29:13;;;;;;;14.30;10.25;;;;;;;36.97;34.93;97557.44;1740266;82;20875;-76
2021/07/14 11:31:42;;;;;;;17.73;11.15;;;;;;;35.58;37.39;97560.00;1637791;87;21028;-75